Time;durP1;ratioP1;P1;durP2;ratioP2;P2;SDS_P1;SDS_P2;PMS_P1;PMS_P2;Temp;Humidity;BMP_temperature;BMP_pressure;BME280_temperature;BME280_humidity;BME280_pressure;Samples;Min_cycle;Max_cycle;Signal;HPM_P1;HPM_P2
2022/03/01 00:01:48;;;;;;;10.73;6.85;;;;;;;;;;4876606;29;20417;-69
2022/03/01 00:04:14;;;;;;;11.73;7.13;;;;;;;;;;4861399;29;20062;-65
2022/03/01 00:06:40;;;;;;;10.82;7.25;;;;;;;;;;4861211;29;20034;-66
2022/03/01 00:09:05;;;;;;;12.27;8.48;;;;;;;;;;4864135;29;20090;-65
2022/03/01 00:11:32;;;;;;;9.82;6.80;;;;;;;;;;4875078;29;20516;-66
2022/03/01 00:13:59;;;;;;;9.57;6.30;;;;;;;;;;4879777;29;20037;-65
2022/03/01 00:16:24;;;;;;;8.27;6.47;;;;;;;;;;4880145;29;20032;-68
2022/03/01 00:18:51;;;;;;;8.77;6.25;;;;;;;;;;4879942;29;20037;-67
2022/03/01 00:21:16;;;;;;;7.40;6.03;;;;;;;;;;4879940;29;20036;-65
2022/03/01 00:23:42;;;;;;;7.47;5.63;;;;;;;;;;4879179;29;20040;-65
2022/03/01 00:26:08;;;;;;;7.82;5.70;;;;;;;;;;4879031;29;20033;-65
2022/03/01 00:28:34;;;;;;;6.88;5.45;;;;;;;;;;4879316;29;20056;-66
2022/03/01 00:31:01;;;;;;;6.43;5.00;;;;;;;;;;4877842;29;20025;-71
2022/03/01 00:33:27;;;;;;;5.93;4.43;;;;;;;;;;4879454;29;20036;-66
2022/03/01 00:35:52;;;;;;;5.88;4.75;;;;;;;;;;4879269;29;20029;-71
2022/03/01 00:38:18;;;;;;;6.93;4.70;;;;;;;;;;4879609;29;20076;-69
2022/03/01 00:40:44;;;;;;;6.97;4.43;;;;;;;;;;4879473;29;20056;-65
2022/03/01 00:43:10;;;;;;;6.00;4.75;;;;;;;;;;4878941;29;20044;-67
2022/03/01 00:45:36;;;;;;;5.95;4.60;;;;;;;;;;4879198;29;20460;-64
2022/03/01 00:48:01;;;;;;;4.72;4.00;;;;;;;;;;4878891;29;20045;-64
2022/03/01 00:50:27;;;;;;;6.50;5.45;;;;;;;;;;4879078;29;20481;-66
2022/03/01 00:52:53;;;;;;;6.05;4.68;;;;;;;;;;4878744;29;20036;-70
2022/03/01 00:55:19;;;;;;;6.20;4.72;;;;;;;;;;4878650;29;20028;-65
2022/03/01 00:57:45;;;;;;;6.55;4.80;;;;;;;;;;4878780;29;20096;-66
2022/03/01 01:00:12;;;;;;;7.65;5.22;;;;;;;;;;4878836;29;20121;-70
2022/03/01 01:02:38;;;;;;;6.68;4.75;;;;;;;;;;4879068;29;20037;-66
2022/03/01 01:05:04;;;;;;;7.30;5.35;;;;;;;;;;4878888;29;20385;-65
2022/03/01 01:07:29;;;;;;;7.30;5.00;;;;;;;;;;4877850;29;20037;-64
2022/03/01 01:09:55;;;;;;;7.43;5.60;;;;;;;;;;4878806;29;20021;-65
2022/03/01 01:12:21;;;;;;;5.60;4.68;;;;;;;;;;4878238;29;20465;-69
2022/03/01 01:14:47;;;;;;;7.38;5.13;;;;;;;;;;4878875;29;20472;-65
2022/03/01 01:17:13;;;;;;;6.13;4.72;;;;;;;;;;4879069;29;20060;-63
2022/03/01 01:19:38;;;;;;;8.73;5.32;;;;;;;;;;4878673;29;20112;-64
2022/03/01 01:24:48;;;;;;;6.78;5.60;;;;;;;;;;4878352;29;20036;-65
2022/03/01 01:27:14;;;;;;;8.55;5.97;;;;;;;;;;4878528;29;20033;-68
2022/03/01 01:29:40;;;;;;;7.60;5.43;;;;;;;;;;4878370;29;20112;-69
2022/03/01 01:32:06;;;;;;;7.93;5.45;;;;;;;;;;4878247;29;20498;-64
2022/03/01 01:34:32;;;;;;;8.02;5.57;;;;;;;;;;4878310;29;20032;-66
2022/03/01 01:36:58;;;;;;;6.38;4.97;;;;;;;;;;4878138;29;20401;-73
2022/03/01 01:39:23;;;;;;;6.38;4.70;;;;;;;;;;4878505;29;20066;-65
2022/03/01 01:41:49;;;;;;;5.43;4.68;;;;;;;;;;4878368;29;20084;-66
2022/03/01 01:44:15;;;;;;;6.53;4.20;;;;;;;;;;4876703;29;20069;-64
2022/03/01 01:46:41;;;;;;;5.75;4.63;;;;;;;;;;4878165;29;20472;-71
2022/03/01 01:49:07;;;;;;;4.68;4.18;;;;;;;;;;4878099;29;20044;-68
2022/03/01 01:51:32;;;;;;;5.25;4.35;;;;;;;;;;4878632;29;20029;-66
2022/03/01 01:53:58;;;;;;;5.05;4.55;;;;;;;;;;4877703;29;20417;-64
2022/03/01 01:56:24;;;;;;;6.10;4.57;;;;;;;;;;4877537;29;20032;-68
2022/03/01 01:58:50;;;;;;;5.85;4.45;;;;;;;;;;4876527;29;20053;-68
2022/03/01 02:01:16;;;;;;;5.50;4.45;;;;;;;;;;4877959;29;20396;-64
2022/03/01 02:03:42;;;;;;;6.88;4.75;;;;;;;;;;4877997;29;20125;-69
2022/03/01 02:06:08;;;;;;;6.00;4.55;;;;;;;;;;4878013;29;20090;-66
2022/03/01 02:08:34;;;;;;;6.47;4.70;;;;;;;;;;4878174;29;20048;-65
2022/03/01 02:11:00;;;;;;;6.28;4.15;;;;;;;;;;4878158;29;20440;-64
2022/03/01 02:13:27;;;;;;;5.35;4.07;;;;;;;;;;4877490;29;20397;-65
2022/03/01 02:15:55;;;;;;;5.97;4.20;;;;;;;;;;4878086;29;20387;-65
2022/03/01 02:18:22;;;;;;;4.85;3.92;;;;;;;;;;4879690;29;20072;-65
2022/03/01 02:20:48;;;;;;;5.60;4.38;;;;;;;;;;4881543;29;20539;-69
2022/03/01 02:23:13;;;;;;;7.15;4.80;;;;;;;;;;4881648;29;20053;-64
2022/03/01 02:25:39;;;;;;;5.57;4.43;;;;;;;;;;4881325;29;20158;-67
2022/03/01 02:28:06;;;;;;;5.97;4.47;;;;;;;;;;4881724;29;20120;-69
2022/03/01 02:30:33;;;;;;;5.72;4.75;;;;;;;;;;4880721;29;20025;-68
2022/03/01 02:32:59;;;;;;;6.63;4.80;;;;;;;;;;4881717;29;20034;-63
2022/03/01 02:35:25;;;;;;;5.82;4.93;;;;;;;;;;4881274;29;20036;-64
2022/03/01 02:37:52;;;;;;;5.63;4.13;;;;;;;;;;4881153;29;20076;-64
2022/03/01 02:40:19;;;;;;;5.85;4.70;;;;;;;;;;4881428;29;20033;-65
2022/03/01 02:42:46;;;;;;;6.78;4.70;;;;;;;;;;4881333;29;20040;-69
2022/03/01 02:45:14;;;;;;;6.07;5.00;;;;;;;;;;4881122;29;20033;-69
2022/03/01 02:47:41;;;;;;;7.10;5.05;;;;;;;;;;4880896;29;20108;-67
2022/03/01 02:50:09;;;;;;;6.53;5.10;;;;;;;;;;4881177;29;20181;-65
2022/03/01 02:52:36;;;;;;;6.22;5.20;;;;;;;;;;4881270;29;20045;-67
2022/03/01 02:55:03;;;;;;;5.93;5.10;;;;;;;;;;4880393;29;20036;-67
2022/03/01 02:57:29;;;;;;;6.70;5.10;;;;;;;;;;4879497;29;20041;-67
2022/03/01 02:59:56;;;;;;;7.90;5.78;;;;;;;;;;4881055;29;20148;-68
2022/03/01 03:02:21;;;;;;;6.38;4.78;;;;;;;;;;4880392;29;20630;-68
2022/03/01 03:04:47;;;;;;;8.48;5.22;;;;;;;;;;4880969;29;20075;-67
2022/03/01 03:07:14;;;;;;;5.90;4.93;;;;;;;;;;4880767;29;20033;-68
2022/03/01 03:09:39;;;;;;;6.80;4.93;;;;;;;;;;4880935;29;20472;-70
2022/03/01 03:12:06;;;;;;;6.90;4.85;;;;;;;;;;4880818;29;20120;-71
2022/03/01 03:14:32;;;;;;;6.13;4.60;;;;;;;;;;4880175;29;20029;-66
2022/03/01 03:16:58;;;;;;;7.45;5.47;;;;;;;;;;4879817;29;20033;-73
2022/03/01 03:19:24;;;;;;;7.53;5.93;;;;;;;;;;4879680;29;20088;-69
2022/03/01 03:21:50;;;;;;;5.63;4.60;;;;;;;;;;4881604;29;20120;-66
2022/03/01 03:24:16;;;;;;;7.82;5.55;;;;;;;;;;4881482;29;20108;-72
2022/03/01 03:26:43;;;;;;;6.90;5.28;;;;;;;;;;4881134;29;20052;-63
2022/03/01 03:29:09;;;;;;;6.35;4.18;;;;;;;;;;4880738;29;20096;-64
2022/03/01 03:31:37;;;;;;;5.57;4.05;;;;;;;;;;4881325;29;20041;-64
2022/03/01 03:34:06;;;;;;;5.72;4.47;;;;;;;;;;4881365;29;20384;-64
2022/03/01 03:36:33;;;;;;;6.53;3.97;;;;;;;;;;4879995;29;20143;-65
2022/03/01 03:38:59;;;;;;;4.68;3.80;;;;;;;;;;4881267;29;20104;-64
2022/03/01 03:41:24;;;;;;;5.30;3.47;;;;;;;;;;4881465;29;20513;-63
2022/03/01 03:43:50;;;;;;;4.88;3.92;;;;;;;;;;4881430;29;20056;-64
2022/03/01 03:46:16;;;;;;;8.07;4.35;;;;;;;;;;4881230;29;20414;-64
2022/03/01 03:48:42;;;;;;;7.30;4.78;;;;;;;;;;4881525;29;20067;-65
2022/03/01 03:51:08;;;;;;;8.18;4.88;;;;;;;;;;4881070;29;20049;-64
2022/03/01 03:53:33;;;;;;;6.65;4.93;;;;;;;;;;4881197;29;20032;-64
2022/03/01 03:55:59;;;;;;;5.97;4.57;;;;;;;;;;4880453;29;20493;-65
2022/03/01 03:58:25;;;;;;;5.45;4.53;;;;;;;;;;4880635;29;20124;-67
2022/03/01 04:00:51;;;;;;;5.82;4.82;;;;;;;;;;4880978;29;20037;-64
2022/03/01 04:03:17;;;;;;;6.72;4.80;;;;;;;;;;4880787;29;20032;-65
2022/03/01 04:05:43;;;;;;;7.80;5.47;;;;;;;;;;4881062;29;20412;-66
2022/03/01 04:08:13;;;;;;;7.47;5.50;;;;;;;;;;4881043;29;20066;-70
2022/03/01 04:10:39;;;;;;;8.20;5.70;;;;;;;;;;4880870;29;20068;-67
2022/03/01 04:13:05;;;;;;;6.80;5.30;;;;;;;;;;4880615;29;20021;-65
2022/03/01 04:15:31;;;;;;;7.57;5.35;;;;;;;;;;4879288;29;20029;-66
2022/03/01 04:17:56;;;;;;;14.05;7.45;;;;;;;;;;4862344;29;20466;-63
2022/03/01 04:20:22;;;;;;;10.40;7.43;;;;;;;;;;4860712;29;20474;-65
2022/03/01 04:22:48;;;;;;;10.38;6.70;;;;;;;;;;4860716;29;20040;-64
2022/03/01 04:25:15;;;;;;;6.95;5.25;;;;;;;;;;4860981;29;20033;-66
2022/03/01 04:27:41;;;;;;;9.48;6.30;;;;;;;;;;4865653;29;20481;-64
2022/03/01 04:30:08;;;;;;;7.90;5.72;;;;;;;;;;4865980;29;20040;-66
2022/03/01 04:32:34;;;;;;;7.03;4.90;;;;;;;;;;4860213;29;20069;-64
2022/03/01 04:35:02;;;;;;;5.70;4.57;;;;;;;;;;4868119;29;20094;-65
2022/03/01 04:37:28;;;;;;;5.93;4.85;;;;;;;;;;4878964;29;20033;-65
2022/03/01 04:39:54;;;;;;;7.53;5.20;;;;;;;;;;4878248;29;20037;-63
2022/03/01 04:42:20;;;;;;;6.53;4.72;;;;;;;;;;4869956;29;20101;-66
2022/03/01 04:44:45;;;;;;;9.80;5.13;;;;;;;;;;4862501;29;20738;-70
2022/03/01 04:47:11;;;;;;;6.50;5.18;;;;;;;;;;4870388;29;20488;-74
2022/03/01 04:49:37;;;;;;;6.63;5.13;;;;;;;;;;4860708;29;20044;-71
2022/03/01 04:52:03;;;;;;;8.52;6.10;;;;;;;;;;4868223;29;20496;-70
2022/03/01 04:54:29;;;;;;;9.90;6.32;;;;;;;;;;4878079;29;20440;-73
2022/03/01 04:56:55;;;;;;;9.10;5.85;;;;;;;;;;4879028;29;20029;-73
2022/03/01 04:59:21;;;;;;;15.23;7.55;;;;;;;;;;4879426;29;20052;-73
2022/03/01 05:01:47;;;;;;;9.10;6.20;;;;;;;;;;4878855;29;20097;-71
2022/03/01 05:04:12;;;;;;;8.05;6.55;;;;;;;;;;4879341;29;20491;-75
2022/03/01 05:06:38;;;;;;;9.65;6.57;;;;;;;;;;4873789;29;20029;-70
2022/03/01 05:09:04;;;;;;;9.52;6.60;;;;;;;;;;4863667;29;20042;-71
2022/03/01 05:11:30;;;;;;;10.27;6.13;;;;;;;;;;4860119;29;20040;-73
2022/03/01 05:13:56;;;;;;;7.80;5.82;;;;;;;;;;4860298;29;20109;-70
2022/03/01 05:16:21;;;;;;;11.82;7.38;;;;;;;;;;4859943;29;20492;-73
2022/03/01 05:18:47;;;;;;;13.38;8.65;;;;;;;;;;4860354;29;20508;-75
2022/03/01 05:21:13;;;;;;;10.95;7.20;;;;;;;;;;4860520;29;20037;-74
2022/03/01 05:23:39;;;;;;;12.18;7.85;;;;;;;;;;4860569;29;20046;-74
2022/03/01 05:26:04;;;;;;;12.00;7.07;;;;;;;;;;4860473;29;20469;-69
2022/03/01 05:28:30;;;;;;;11.73;6.25;;;;;;;;;;4860082;29;20056;-71
2022/03/01 05:30:56;;;;;;;7.95;5.28;;;;;;;;;;4860802;29;20100;-73
2022/03/01 05:33:22;;;;;;;8.57;5.22;;;;;;;;;;4867740;29;20037;-72
2022/03/01 05:35:49;;;;;;;7.78;5.38;;;;;;;;;;4885941;29;20436;-71
2022/03/01 05:38:15;;;;;;;9.35;5.75;;;;;;;;;;4878708;29;20056;-69
2022/03/01 05:40:41;;;;;;;6.57;4.70;;;;;;;;;;4878322;29;20465;-72
2022/03/01 05:43:08;;;;;;;6.00;4.57;;;;;;;;;;4878676;29;20040;-67
2022/03/01 05:45:34;;;;;;;6.65;4.45;;;;;;;;;;4878845;29;20074;-71
2022/03/01 05:48:01;;;;;;;8.38;4.65;;;;;;;;;;4878664;29;20033;-68
2022/03/01 05:50:27;;;;;;;6.32;4.38;;;;;;;;;;4878699;29;20039;-70
2022/03/01 05:52:53;;;;;;;6.22;4.20;;;;;;;;;;4877297;29;20033;-71
2022/03/01 05:55:19;;;;;;;6.50;4.95;;;;;;;;;;4878287;29;20032;-68
2022/03/01 05:57:45;;;;;;;5.35;4.30;;;;;;;;;;4878508;29;20033;-71
2022/03/01 06:00:14;;;;;;;6.93;5.35;;;;;;;;;;4878639;29;20037;-70
2022/03/01 06:02:41;;;;;;;5.50;4.50;;;;;;;;;;4878293;29;20051;-74
2022/03/01 06:05:08;;;;;;;6.22;5.00;;;;;;;;;;4878117;29;20064;-72
2022/03/01 06:07:34;;;;;;;9.05;5.72;;;;;;;;;;4878293;29;20053;-69
2022/03/01 06:10:00;;;;;;;7.40;4.90;;;;;;;;;;4877857;29;20021;-69
2022/03/01 06:12:26;;;;;;;7.00;5.30;;;;;;;;;;4878139;29;20041;-70
2022/03/01 06:14:52;;;;;;;8.20;4.95;;;;;;;;;;4877954;29;20052;-69
2022/03/01 06:17:18;;;;;;;8.20;4.88;;;;;;;;;;4877639;29;20045;-67
2022/03/01 06:19:43;;;;;;;7.68;5.38;;;;;;;;;;4878382;29;20033;-70
2022/03/01 06:22:09;;;;;;;9.90;4.55;;;;;;;;;;4877961;29;20040;-69
2022/03/01 06:24:40;;;;;;;7.65;4.97;;;;;;;;;;4877795;29;20021;-77
2022/03/01 06:27:06;;;;;;;6.63;4.20;;;;;;;;;;4878015;29;20060;-70
2022/03/01 06:29:32;;;;;;;7.30;5.20;;;;;;;;;;4877913;29;20040;-70
2022/03/01 06:31:58;;;;;;;7.47;4.85;;;;;;;;;;4878324;29;20388;-76
2022/03/01 06:34:24;;;;;;;7.00;4.85;;;;;;;;;;4878247;29;20029;-71
2022/03/01 06:36:50;;;;;;;10.05;6.18;;;;;;;;;;4877734;29;20181;-74
2022/03/01 06:39:15;;;;;;;7.65;5.47;;;;;;;;;;4877888;29;20405;-74
2022/03/01 06:41:41;;;;;;;6.88;5.25;;;;;;;;;;4872376;29;20056;-72
2022/03/01 06:44:07;;;;;;;8.43;5.38;;;;;;;;;;4860683;29;20033;-72
2022/03/01 06:46:33;;;;;;;9.05;5.32;;;;;;;;;;4860191;29;20378;-75
2022/03/01 06:48:58;;;;;;;9.57;5.20;;;;;;;;;;4872372;29;20037;-68
2022/03/01 06:51:25;;;;;;;6.32;4.60;;;;;;;;;;4862462;29;20038;-75
2022/03/01 06:53:50;;;;;;;8.57;5.10;;;;;;;;;;4859278;29;20033;-72
2022/03/01 06:56:17;;;;;;;7.55;5.10;;;;;;;;;;4863685;29;20516;-73
2022/03/01 06:58:43;;;;;;;12.82;6.93;;;;;;;;;;4877850;29;20045;-72
2022/03/01 07:01:09;;;;;;;8.98;5.47;;;;;;;;;;4877983;29;20049;-75
2022/03/01 07:03:35;;;;;;;6.40;4.40;;;;;;;;;;4877870;29;20089;-80
2022/03/01 07:06:01;;;;;;;9.20;4.80;;;;;;;;;;4880115;29;20087;-71
2022/03/01 07:08:27;;;;;;;6.75;4.53;;;;;;;;;;4878770;29;20037;-71
2022/03/01 07:10:53;;;;;;;10.27;7.20;;;;;;;;;;4871212;29;20080;-69
2022/03/01 07:13:19;;;;;;;4.85;4.20;;;;;;;;;;4863143;29;20044;-74
2022/03/01 07:15:45;;;;;;;6.28;4.80;;;;;;;;;;4862314;29;20037;-76
2022/03/01 07:18:11;;;;;;;8.70;5.20;;;;;;;;;;4862566;29;20030;-72
2022/03/01 07:20:37;;;;;;;7.82;4.72;;;;;;;;;;4862787;29;20144;-70
2022/03/01 07:23:04;;;;;;;12.18;5.40;;;;;;;;;;4862628;29;20130;-74
2022/03/01 07:25:30;;;;;;;7.03;4.90;;;;;;;;;;4882007;29;20048;-71
2022/03/01 07:27:56;;;;;;;4.07;3.28;;;;;;;;;;4881071;29;20396;-76
2022/03/01 07:30:26;;;;;;;5.03;3.72;;;;;;;;;;4880884;29;20048;-71
2022/03/01 07:32:56;;;;;;;6.10;3.80;;;;;;;;;;4880996;29;20025;-74
2022/03/01 07:35:23;;;;;;;8.60;5.03;;;;;;;;;;4881011;29;20066;-74
2022/03/01 07:37:50;;;;;;;6.90;5.47;;;;;;;;;;4880538;29;20033;-73
2022/03/01 07:40:17;;;;;;;6.30;4.68;;;;;;;;;;4880861;29;20033;-70
2022/03/01 07:42:43;;;;;;;6.38;4.18;;;;;;;;;;4880449;29;20036;-71
2022/03/01 07:45:10;;;;;;;7.95;4.88;;;;;;;;;;4880721;29;20044;-68
2022/03/01 07:47:36;;;;;;;4.32;3.30;;;;;;;;;;4880326;29;20413;-72
2022/03/01 07:50:03;;;;;;;5.25;3.47;;;;;;;;;;4870046;29;20037;-67
2022/03/01 07:52:29;;;;;;;3.83;3.08;;;;;;;;;;4873284;29;20033;-74
2022/03/01 07:54:55;;;;;;;5.05;3.30;;;;;;;;;;4868551;29;20053;-75
2022/03/01 07:57:21;;;;;;;5.65;3.13;;;;;;;;;;4873909;29;20033;-72
2022/03/01 07:59:47;;;;;;;5.78;3.90;;;;;;;;;;4878456;29;20070;-79
2022/03/01 08:02:13;;;;;;;5.05;3.40;;;;;;;;;;4878559;29;20109;-69
2022/03/01 08:04:41;;;;;;;5.03;3.55;;;;;;;;;;4879742;29;20053;-70
2022/03/01 08:07:10;;;;;;;7.43;4.13;;;;;;;;;;4879676;29;20021;-70
2022/03/01 08:09:38;;;;;;;3.80;3.20;;;;;;;;;;4877310;29;20144;-70
2022/03/01 08:12:05;;;;;;;5.00;3.38;;;;;;;;;;4879945;29;20060;-68
2022/03/01 08:14:32;;;;;;;5.47;3.20;;;;;;;;;;4880170;29;20045;-74
2022/03/01 08:17:01;;;;;;;4.43;3.15;;;;;;;;;;4878178;29;20029;-71
2022/03/01 08:19:27;;;;;;;3.58;2.60;;;;;;;;;;4879370;29;20041;-74
2022/03/01 08:21:53;;;;;;;5.47;4.22;;;;;;;;;;4879807;29;20120;-70
2022/03/01 08:24:19;;;;;;;3.47;2.90;;;;;;;;;;4879788;29;20497;-73
2022/03/01 08:26:46;;;;;;;5.25;3.30;;;;;;;;;;4879354;29;20559;-81
2022/03/01 08:29:12;;;;;;;2.95;2.30;;;;;;;;;;4878994;29;20459;-73
2022/03/01 08:31:41;;;;;;;2.20;1.58;;;;;;;;;;4879787;29;20032;-80
2022/03/01 08:34:07;;;;;;;2.55;1.90;;;;;;;;;;4879906;29;20036;-72
2022/03/01 08:36:33;;;;;;;2.95;2.05;;;;;;;;;;4871044;29;20033;-70
2022/03/01 08:38:59;;;;;;;4.13;3.13;;;;;;;;;;4879440;29;20512;-70
2022/03/01 08:41:25;;;;;;;3.72;2.80;;;;;;;;;;4879912;29;20033;-77
2022/03/01 08:43:51;;;;;;;9.55;7.35;;;;;;;;;;4879460;29;20048;-74
2022/03/01 08:46:17;;;;;;;4.38;3.13;;;;;;;;;;4878938;29;20028;-75
2022/03/01 08:48:44;;;;;;;4.63;2.83;;;;;;;;;;4879052;29;20049;-69
2022/03/01 08:51:11;;;;;;;3.00;2.33;;;;;;;;;;4879455;29;20036;-79
2022/03/01 08:53:37;;;;;;;4.78;3.40;;;;;;;;;;4879310;29;20033;-76
2022/03/01 08:56:03;;;;;;;4.30;2.70;;;;;;;;;;4879082;29;20080;-73
2022/03/01 08:58:30;;;;;;;4.45;2.85;;;;;;;;;;4879471;29;20485;-76
2022/03/01 09:00:55;;;;;;;5.13;3.47;;;;;;;;;;4879269;29;20051;-71
2022/03/01 09:03:23;;;;;;;4.15;2.95;;;;;;;;;;4879028;29;20195;-74
2022/03/01 09:05:49;;;;;;;4.80;3.40;;;;;;;;;;4878594;29;20117;-70
2022/03/01 09:08:15;;;;;;;5.13;4.03;;;;;;;;;;4877613;29;20140;-77
2022/03/01 09:10:41;;;;;;;3.90;2.88;;;;;;;;;;4878255;29;20033;-74
2022/03/01 09:13:08;;;;;;;3.53;2.72;;;;;;;;;;4878938;29;20124;-72
2022/03/01 09:15:34;;;;;;;11.32;6.85;;;;;;;;;;4878405;29;20398;-71
2022/03/01 09:18:03;;;;;;;4.30;2.40;;;;;;;;;;4877990;29;20107;-74
2022/03/01 09:20:30;;;;;;;3.33;2.67;;;;;;;;;;4878112;29;20029;-76
2022/03/01 09:22:57;;;;;;;5.65;3.17;;;;;;;;;;4878126;29;20047;-73
2022/03/01 09:25:23;;;;;;;4.40;3.03;;;;;;;;;;4877800;29;20032;-74
2022/03/01 09:27:49;;;;;;;5.57;3.53;;;;;;;;;;4877067;29;20369;-76
2022/03/01 09:30:16;;;;;;;5.03;3.50;;;;;;;;;;4877796;29;20025;-69
2022/03/01 09:32:43;;;;;;;4.22;2.88;;;;;;;;;;4877239;29;20479;-74
2022/03/01 09:35:09;;;;;;;4.97;2.78;;;;;;;;;;4877583;29;20429;-73
2022/03/01 09:37:36;;;;;;;4.15;2.10;;;;;;;;;;4877758;29;20128;-72
2022/03/01 09:40:04;;;;;;;4.00;2.45;;;;;;;;;;4877969;29;20052;-75
2022/03/01 09:42:31;;;;;;;5.32;3.28;;;;;;;;;;4877413;29;20029;-70
2022/03/01 09:44:59;;;;;;;6.75;3.28;;;;;;;;;;4877511;29;20085;-70
2022/03/01 09:47:25;;;;;;;6.40;2.50;;;;;;;;;;4877694;29;20037;-74
2022/03/01 09:49:51;;;;;;;1.73;1.20;;;;;;;;;;4877512;29;20049;-75
2022/03/01 09:52:19;;;;;;;1.58;1.10;;;;;;;;;;4877248;29;20123;-75
2022/03/01 09:54:48;;;;;;;3.67;1.75;;;;;;;;;;4868085;29;20121;-76
2022/03/01 09:57:14;;;;;;;3.40;2.03;;;;;;;;;;4858343;29;20497;-79
2022/03/01 09:59:41;;;;;;;3.33;2.22;;;;;;;;;;4857419;29;20056;-80
2022/03/01 10:02:08;;;;;;;3.78;2.00;;;;;;;;;;4859096;29;20057;-73
2022/03/01 10:04:50;;;;;;;2.92;1.48;;;;;;;;;;4858882;29;20408;-70
2022/03/01 10:07:25;;;;;;;3.70;2.10;;;;;;;;;;4858718;29;20044;-78
2022/03/01 10:09:51;;;;;;;3.63;2.28;;;;;;;;;;4858415;29;20041;-77
2022/03/01 10:12:26;;;;;;;3.30;2.08;;;;;;;;;;4859617;29;20037;-72
2022/03/01 10:15:03;;;;;;;2.70;1.60;;;;;;;;;;4858527;29;20113;-77
2022/03/01 10:17:34;;;;;;;3.17;1.70;;;;;;;;;;4858722;29;20112;-72
2022/03/01 10:20:02;;;;;;;2.47;1.10;;;;;;;;;;4859700;29;20041;-80
2022/03/01 10:22:28;;;;;;;3.47;2.00;;;;;;;;;;4859679;29;20030;-76
2022/03/01 10:24:54;;;;;;;1.88;1.10;;;;;;;;;;4866596;29;20382;-78
2022/03/01 10:27:30;;;;;;;1.70;1.20;;;;;;;;;;4885866;29;20028;-71
2022/03/01 10:29:56;;;;;;;2.92;1.40;;;;;;;;;;4894266;29;20069;-79
2022/03/01 10:32:21;;;;;;;3.72;1.52;;;;;;;;;;4897217;29;20184;-78
2022/03/01 10:34:59;;;;;;;2.60;1.23;;;;;;;;;;4896487;29;20033;-73
2022/03/01 10:37:33;;;;;;;1.65;1.20;;;;;;;;;;4896917;29;20059;-79
2022/03/01 10:40:12;;;;;;;2.38;1.30;;;;;;;;;;4899483;29;20044;-76
2022/03/01 10:42:38;;;;;;;1.67;0.98;;;;;;;;;;4882836;29;20044;-74
2022/03/01 10:45:06;;;;;;;2.20;1.40;;;;;;;;;;4875800;29;20034;-77
2022/03/01 10:47:37;;;;;;;2.70;1.40;;;;;;;;;;4883405;29;20133;-78
2022/03/01 10:50:12;;;;;;;4.45;1.90;;;;;;;;;;4861988;29;20037;-76
2022/03/01 10:52:39;;;;;;;5.35;1.80;;;;;;;;;;4861516;29;20037;-78
2022/03/01 10:55:29;;;;;;;2.65;1.30;;;;;;;;;;4861682;29;20053;-78
2022/03/01 10:58:02;;;;;;;4.47;2.80;;;;;;;;;;4856970;29;20050;-75
2022/03/01 11:00:29;;;;;;;4.70;2.22;;;;;;;;;;4877115;29;20413;-77
2022/03/01 11:02:55;;;;;;;3.78;1.95;;;;;;;;;;4881825;29;20045;-70
2022/03/01 11:05:22;;;;;;;3.60;1.75;;;;;;;;;;4881931;29;20037;-75
2022/03/01 11:07:50;;;;;;;4.45;2.00;;;;;;;;;;4881420;29;20052;-69
2022/03/01 11:10:18;;;;;;;4.63;3.20;;;;;;;;;;4881130;29;20044;-73
2022/03/01 11:12:46;;;;;;;6.53;4.00;;;;;;;;;;4881781;29;20417;-72
2022/03/01 11:15:35;;;;;;;7.65;5.78;;;;;;;;;;4880951;29;20037;-69
2022/03/01 11:18:10;;;;;;;8.90;5.40;;;;;;;;;;4880525;29;20472;-73
2022/03/01 11:20:41;;;;;;;7.18;5.10;;;;;;;;;;4875559;29;20189;-72
2022/03/01 11:23:11;;;;;;;7.55;5.07;;;;;;;;;;4864970;29;20064;-77
2022/03/01 11:25:40;;;;;;;7.63;5.85;;;;;;;;;;4861876;29;20093;-78
2022/03/01 11:28:09;;;;;;;13.10;7.13;;;;;;;;;;4861605;29;20033;-77
2022/03/01 11:30:37;;;;;;;12.07;7.13;;;;;;;;;;4879961;29;20036;-77
2022/03/01 11:33:05;;;;;;;9.93;5.47;;;;;;;;;;4886828;29;20021;-74
2022/03/01 11:35:33;;;;;;;8.68;6.03;;;;;;;;;;4886154;29;20033;-70
2022/03/01 11:37:59;;;;;;;9.68;5.50;;;;;;;;;;4888612;29;20376;-75
2022/03/01 11:40:25;;;;;;;6.05;4.43;;;;;;;;;;4889704;29;20049;-74
2022/03/01 11:42:53;;;;;;;7.80;6.20;;;;;;;;;;4879866;29;20055;-78
2022/03/01 11:45:19;;;;;;;14.43;10.32;;;;;;;;;;4879640;29;20029;-74
2022/03/01 11:47:44;;;;;;;8.45;6.40;;;;;;;;;;4876758;29;20710;-74
2022/03/01 11:50:18;;;;;;;6.95;4.78;;;;;;;;;;4873970;29;20033;-76
2022/03/01 11:53:04;;;;;;;7.30;5.60;;;;;;;;;;4878484;29;20049;-69
2022/03/01 11:55:40;;;;;;;6.28;5.03;;;;;;;;;;4863403;29;20497;-71
2022/03/01 11:58:07;;;;;;;5.72;4.78;;;;;;;;;;4859866;29;20120;-80
2022/03/01 12:00:34;;;;;;;9.95;7.15;;;;;;;;;;4859974;29;20037;-79
2022/03/01 12:03:01;;;;;;;6.30;5.55;;;;;;;;;;4860327;29;20121;-77
2022/03/01 12:05:27;;;;;;;6.60;5.32;;;;;;;;;;4859721;29;20074;-80
2022/03/01 12:07:54;;;;;;;8.80;4.95;;;;;;;;;;4860742;29;20037;-70
2022/03/01 12:10:22;;;;;;;7.25;5.55;;;;;;;;;;4860533;29;20421;-76
2022/03/01 12:12:52;;;;;;;9.77;6.90;;;;;;;;;;4860195;29;20132;-76
2022/03/01 12:15:32;;;;;;;9.35;6.63;;;;;;;;;;4860539;29;20037;-78
2022/03/01 12:18:13;;;;;;;6.72;5.05;;;;;;;;;;4860494;29;20067;-78
2022/03/01 12:20:46;;;;;;;5.85;4.50;;;;;;;;;;4860256;29;20037;-72
2022/03/01 12:23:27;;;;;;;7.10;5.40;;;;;;;;;;4860117;29;20507;-76
2022/03/01 12:25:55;;;;;;;7.07;5.07;;;;;;;;;;4860527;29;20042;-75
2022/03/01 12:28:22;;;;;;;9.90;6.47;;;;;;;;;;4860344;29;20049;-77
2022/03/01 12:30:48;;;;;;;7.47;5.47;;;;;;;;;;4859849;29;20101;-76
2022/03/01 12:33:18;;;;;;;6.35;5.10;;;;;;;;;;4859562;29;20068;-79
2022/03/01 12:35:55;;;;;;;12.82;4.75;;;;;;;;;;4859796;29;20041;-74
2022/03/01 12:38:21;;;;;;;5.60;4.63;;;;;;;;;;4860166;29;20169;-74
2022/03/01 12:40:46;;;;;;;6.05;5.20;;;;;;;;;;4859941;29;20104;-80
2022/03/01 12:43:13;;;;;;;5.18;4.68;;;;;;;;;;4860358;29;20034;-78
2022/03/01 12:45:42;;;;;;;13.68;7.93;;;;;;;;;;4859753;29;20479;-78
2022/03/01 12:48:11;;;;;;;5.93;4.40;;;;;;;;;;4859826;29;20185;-75
2022/03/01 12:50:45;;;;;;;4.32;3.45;;;;;;;;;;4859471;29;20104;-72
2022/03/01 12:53:12;;;;;;;3.38;2.17;;;;;;;;;;4857884;29;20037;-78
2022/03/01 12:55:42;;;;;;;4.43;2.58;;;;;;;;;;4859842;29;20026;-77
2022/03/01 12:58:27;;;;;;;3.33;2.50;;;;;;;;;;4859525;29;20519;-75
2022/03/01 13:01:04;;;;;;;5.30;2.35;;;;;;;;;;4859346;29;20057;-76
2022/03/01 13:03:31;;;;;;;4.25;2.80;;;;;;;;;;4859956;29;20044;-75
2022/03/01 13:06:08;;;;;;;5.43;2.88;;;;;;;;;;4859692;29;20039;-72
2022/03/01 13:08:36;;;;;;;4.55;2.70;;;;;;;;;;4859501;29;20144;-74
2022/03/01 13:11:10;;;;;;;3.60;2.40;;;;;;;;;;4858133;29;20129;-73
2022/03/01 13:13:44;;;;;;;3.63;2.65;;;;;;;;;;4863688;29;20366;-71
2022/03/01 13:16:10;;;;;;;2.55;2.10;;;;;;;;;;4878322;29;20497;-75
2022/03/01 13:18:36;;;;;;;4.82;3.30;;;;;;;;;;4868574;29;20100;-71
2022/03/01 13:21:02;;;;;;;4.82;3.63;;;;;;;;;;4859709;29;20050;-75
2022/03/01 13:23:33;;;;;;;5.57;3.65;;;;;;;;;;4863598;29;20504;-74
2022/03/01 13:26:01;;;;;;;3.90;3.30;;;;;;;;;;4879032;29;20469;-74
2022/03/01 13:28:37;;;;;;;2.88;2.03;;;;;;;;;;4878330;29;20047;-72
2022/03/01 13:31:05;;;;;;;3.60;2.47;;;;;;;;;;4877882;29;20403;-73
2022/03/01 13:33:32;;;;;;;3.65;2.80;;;;;;;;;;4877505;29;20438;-77
2022/03/01 13:36:11;;;;;;;4.43;3.45;;;;;;;;;;4877627;29;20033;-73
2022/03/01 13:38:37;;;;;;;3.85;3.05;;;;;;;;;;4877830;29;20029;-69
2022/03/01 13:41:03;;;;;;;3.28;2.80;;;;;;;;;;4877583;29;20116;-75
2022/03/01 13:43:28;;;;;;;4.47;3.72;;;;;;;;;;4877884;29;20089;-78
2022/03/01 13:46:00;;;;;;;5.63;4.05;;;;;;;;;;4878933;29;20119;-80
2022/03/01 13:48:29;;;;;;;5.57;3.60;;;;;;;;;;4879249;29;20089;-80
2022/03/01 13:51:08;;;;;;;6.18;4.10;;;;;;;;;;4879109;29;20049;-80
2022/03/01 13:53:34;;;;;;;3.10;2.40;;;;;;;;;;4878650;29;20036;-82
2022/03/01 13:56:01;;;;;;;2.60;2.15;;;;;;;;;;4878852;29;20025;-77
2022/03/01 13:58:28;;;;;;;3.55;2.60;;;;;;;;;;4878600;29;20438;-75
2022/03/01 14:00:57;;;;;;;4.35;3.10;;;;;;;;;;4878238;29;20072;-77
2022/03/01 14:03:31;;;;;;;4.80;2.92;;;;;;;;;;4878841;29;20085;-75
2022/03/01 14:05:57;;;;;;;3.30;2.35;;;;;;;;;;4865819;29;20519;-77
2022/03/01 14:08:24;;;;;;;4.03;2.65;;;;;;;;;;4860045;29;20041;-71
2022/03/01 14:11:01;;;;;;;5.80;3.47;;;;;;;;;;4859965;29;20125;-76
2022/03/01 14:13:31;;;;;;;3.90;3.15;;;;;;;;;;4859924;29;20555;-72
2022/03/01 14:16:07;;;;;;;3.80;2.55;;;;;;;;;;4865522;29;20032;-77
2022/03/01 14:18:39;;;;;;;4.80;2.97;;;;;;;;;;4865466;29;20056;-76
2022/03/01 14:21:06;;;;;;;4.03;2.55;;;;;;;;;;4865450;29;20047;-76
2022/03/01 14:23:32;;;;;;;3.75;2.17;;;;;;;;;;4864954;29;20109;-75
2022/03/01 14:25:58;;;;;;;6.40;3.00;;;;;;;;;;4864921;29;20033;-77
2022/03/01 14:28:25;;;;;;;3.30;2.22;;;;;;;;;;4865128;29;20030;-81
2022/03/01 14:30:52;;;;;;;2.67;2.10;;;;;;;;;;4864993;29;20243;-77
2022/03/01 14:33:17;;;;;;;7.68;3.58;;;;;;;;;;4865139;29;20040;-74
2022/03/01 14:35:44;;;;;;;13.18;3.80;;;;;;;;;;4865073;29;20033;-76
2022/03/01 14:38:10;;;;;;;25.67;4.13;;;;;;;;;;4865259;29;20029;-80
2022/03/01 14:40:36;;;;;;;4.63;2.97;;;;;;;;;;4864782;29;20473;-77
2022/03/01 14:43:04;;;;;;;8.65;3.92;;;;;;;;;;4865092;29;20087;-74
2022/03/01 14:45:29;;;;;;;6.88;3.80;;;;;;;;;;4864708;29;20396;-78
2022/03/01 14:47:56;;;;;;;6.05;3.30;;;;;;;;;;4864566;29;20158;-78